createdAt,value
2019-01-13T00:01:15.039Z,1012.16
2019-01-13T00:03:15.079Z,1012.18
2019-01-13T00:07:15.085Z,1012.13
2019-01-13T00:09:15.076Z,1012.07
2019-01-13T00:13:15.068Z,1012.08
2019-01-13T00:15:15.110Z,1012.01
2019-01-13T00:19:15.102Z,1012.07
2019-01-13T00:21:15.081Z,1012.04
2019-01-13T00:25:20.311Z,1012.03
2019-01-13T00:27:15.102Z,1012.04
2019-01-13T00:31:15.091Z,1012.02
2019-01-13T00:33:15.065Z,1012.00
2019-01-13T00:37:15.155Z,1012.03
2019-01-13T00:39:15.086Z,1012.01
2019-01-13T00:43:15.141Z,1012.05
2019-01-13T00:45:15.126Z,1011.98
2019-01-13T00:49:15.090Z,1011.78
2019-01-13T00:51:15.088Z,1011.83
2019-01-13T00:55:15.084Z,1011.67
2019-01-13T00:57:15.088Z,1011.62
2019-01-13T01:01:15.080Z,1011.59
2019-01-13T01:03:15.933Z,1011.59
2019-01-13T01:07:15.160Z,1011.59
2019-01-13T01:09:15.144Z,1011.62
2019-01-13T01:13:15.125Z,1011.51
2019-01-13T01:15:15.078Z,1011.38
2019-01-13T01:19:15.114Z,1011.22
2019-01-13T01:21:15.143Z,1011.15
2019-01-13T01:25:15.110Z,1011.09
2019-01-13T01:27:20.334Z,1010.99
2019-01-13T01:31:15.113Z,1010.97
2019-01-13T01:33:15.128Z,1010.97
2019-01-13T01:37:15.145Z,1010.96
2019-01-13T01:39:15.134Z,1010.97
2019-01-13T01:43:15.111Z,1010.87
2019-01-13T01:45:15.170Z,1010.83
2019-01-13T01:49:15.103Z,1010.94
2019-01-13T01:51:15.118Z,1010.92
2019-01-13T01:55:15.098Z,1010.89
2019-01-13T01:57:15.157Z,1010.84
2019-01-13T02:01:15.168Z,1010.99
2019-01-13T02:03:15.147Z,1011.08
2019-01-13T02:07:15.163Z,1011.13
2019-01-13T02:09:15.149Z,1011.17
2019-01-13T02:13:15.172Z,1011.21
2019-01-13T02:15:15.181Z,1011.22
2019-01-13T02:19:15.155Z,1011.22
2019-01-13T02:21:15.148Z,1011.20
2019-01-13T02:25:15.131Z,1011.02
2019-01-13T02:27:15.149Z,1010.97
2019-01-13T02:31:20.326Z,1010.74
2019-01-13T02:33:15.133Z,1010.62
2019-01-13T02:37:15.142Z,1010.59
2019-01-13T02:39:15.173Z,1010.58
2019-01-13T02:43:15.166Z,1010.53
2019-01-13T02:45:15.154Z,1010.57
2019-01-13T02:49:15.144Z,1010.58
2019-01-13T02:51:15.189Z,1010.52
2019-01-13T02:55:20.282Z,1010.48
2019-01-13T02:57:20.278Z,1010.40
2019-01-13T03:01:15.209Z,1010.30
2019-01-13T03:03:15.163Z,1010.23
2019-01-13T03:07:16.010Z,1010.18
2019-01-13T03:09:15.198Z,1010.09
2019-01-13T03:13:15.172Z,1010.03
2019-01-13T03:15:19.348Z,1009.98
2019-01-13T03:19:15.160Z,1009.91
2019-01-13T03:21:15.241Z,1009.89
2019-01-13T03:25:15.176Z,1009.86
2019-01-13T03:27:15.191Z,1009.96
2019-01-13T03:31:15.220Z,1009.88
2019-01-13T03:33:15.188Z,1009.79
2019-01-13T03:37:15.182Z,1009.69
2019-01-13T03:39:19.583Z,1009.65
2019-01-13T03:43:15.177Z,1009.57
2019-01-13T03:45:15.233Z,1009.41
2019-01-13T03:49:15.175Z,1009.35
2019-01-13T03:51:15.247Z,1009.20
2019-01-13T03:55:15.248Z,1009.03
2019-01-13T03:57:15.188Z,1009.05
2019-01-13T04:01:18.626Z,1008.93
2019-01-13T04:03:15.187Z,1008.83
2019-01-13T04:07:15.194Z,1008.87
2019-01-13T04:09:15.216Z,1008.86
2019-01-13T04:13:15.194Z,1008.74
2019-01-13T04:15:19.599Z,1008.67
2019-01-13T04:19:19.628Z,1008.55
2019-01-13T04:21:15.243Z,1008.56
2019-01-13T04:25:20.287Z,1008.35
2019-01-13T04:27:15.209Z,1008.33
2019-01-13T04:31:15.197Z,1008.27
2019-01-13T04:33:15.225Z,1008.20
2019-01-13T04:37:15.230Z,1008.17
2019-01-13T04:39:15.215Z,1008.17
2019-01-13T04:43:15.202Z,1008.20
2019-01-13T04:45:15.202Z,1008.14
2019-01-13T04:49:15.199Z,1008.06
2019-01-13T04:51:15.192Z,1008.04
2019-01-13T04:55:15.224Z,1007.98
2019-01-13T04:57:15.252Z,1007.96
2019-01-13T05:01:15.222Z,1008.00
2019-01-13T05:03:15.220Z,1008.05
2019-01-13T05:07:15.228Z,1007.94
2019-01-13T05:09:20.293Z,1007.94
2019-01-13T05:13:15.272Z,1007.91
2019-01-13T05:15:15.266Z,1007.76
2019-01-13T05:19:15.267Z,1007.81
2019-01-13T05:21:15.282Z,1007.75
2019-01-13T05:25:15.249Z,1007.70
2019-01-13T05:27:15.269Z,1007.61
2019-01-13T05:31:15.293Z,1007.58
2019-01-13T05:33:15.244Z,1007.54
2019-01-13T05:37:15.259Z,1007.44
2019-01-13T05:39:15.305Z,1007.52
2019-01-13T05:43:15.258Z,1007.33
2019-01-13T05:45:15.273Z,1007.34
2019-01-13T05:49:15.237Z,1007.36
2019-01-13T05:51:15.248Z,1007.29
2019-01-13T05:55:15.273Z,1007.25
2019-01-13T05:57:15.277Z,1007.23
2019-01-13T06:01:15.269Z,1007.10
2019-01-13T06:03:19.658Z,1007.14
2019-01-13T06:07:16.084Z,1007.06
2019-01-13T06:09:15.248Z,1007.01
2019-01-13T06:13:15.289Z,1007.07
2019-01-13T06:15:15.324Z,1006.93
2019-01-13T06:19:20.496Z,1006.94
2019-01-13T06:21:15.306Z,1006.83
2019-01-13T06:25:15.431Z,1006.69
2019-01-13T06:27:15.404Z,1006.71
2019-01-13T06:31:15.316Z,1006.82
2019-01-13T06:33:20.093Z,1006.78
2019-01-13T06:37:15.430Z,1006.69
2019-01-13T06:39:15.304Z,1006.56
2019-01-13T06:43:15.452Z,1006.54
2019-01-13T06:45:19.639Z,1006.60
2019-01-13T06:49:15.512Z,1006.63
2019-01-13T06:51:15.415Z,1006.58
2019-01-13T06:55:15.393Z,1006.62
2019-01-13T06:57:18.283Z,1006.57
2019-01-13T07:01:15.461Z,1006.63
2019-01-13T07:03:15.419Z,1006.56
2019-01-13T07:07:20.380Z,1006.73
2019-01-13T07:09:15.335Z,1006.59
2019-01-13T07:13:15.324Z,1006.63
2019-01-13T07:15:15.467Z,1006.70
2019-01-13T07:19:15.463Z,1006.62
2019-01-13T07:21:15.433Z,1006.60
2019-01-13T07:25:16.472Z,1006.52
2019-01-13T07:27:15.413Z,1006.54
2019-01-13T07:31:15.400Z,1006.51
2019-01-13T07:33:18.269Z,1006.49
2019-01-13T07:37:15.444Z,1006.32
2019-01-13T07:39:15.457Z,1006.46
2019-01-13T07:45:15.462Z,1006.40
2019-01-13T07:47:15.499Z,1006.35
2019-01-13T07:51:15.321Z,1006.21
2019-01-13T07:53:15.488Z,1006.20
2019-01-13T07:57:15.341Z,1006.17
2019-01-13T07:59:16.280Z,1006.27
2019-01-13T08:03:15.335Z,1006.17
2019-01-13T08:05:15.507Z,1006.10
2019-01-13T08:09:15.453Z,1006.04
2019-01-13T08:11:15.357Z,1005.93
2019-01-13T08:15:15.559Z,1006.04
2019-01-13T08:17:15.564Z,1006.08
2019-01-13T08:21:15.349Z,1006.04
2019-01-13T08:23:15.326Z,1006.00
2019-01-13T08:27:15.539Z,1005.93
2019-01-13T08:29:15.317Z,1005.98
2019-01-13T08:33:18.301Z,1005.95
2019-01-13T08:35:15.384Z,1005.83
2019-01-13T08:39:15.475Z,1005.79
2019-01-13T08:41:15.350Z,1005.82
2019-01-13T08:45:15.411Z,1005.81
2019-01-13T08:47:15.331Z,1005.81
2019-01-13T08:51:15.356Z,1005.75
2019-01-13T08:53:17.435Z,1005.68
2019-01-13T08:57:15.322Z,1005.78
2019-01-13T08:59:15.357Z,1005.66
2019-01-13T09:03:15.322Z,1005.64
2019-01-13T09:05:15.366Z,1005.65
2019-01-13T09:09:15.346Z,1005.60
2019-01-13T09:11:15.358Z,1005.62
2019-01-13T09:15:15.353Z,1005.65
2019-01-13T09:17:15.352Z,1005.54
2019-01-13T09:21:15.334Z,1005.46
2019-01-13T09:23:15.341Z,1005.41
2019-01-13T09:27:15.346Z,1005.39
2019-01-13T09:29:15.333Z,1005.45
2019-01-13T09:33:15.341Z,1005.56
2019-01-13T09:35:15.331Z,1005.55
2019-01-13T09:39:15.358Z,1005.46
2019-01-13T09:41:15.390Z,1005.46
2019-01-13T09:45:15.369Z,1005.33
2019-01-13T09:47:20.574Z,1005.13
2019-01-13T09:51:15.350Z,1005.16
2019-01-13T09:53:15.326Z,1005.22
2019-01-13T09:57:19.770Z,1005.14
2019-01-13T09:59:15.432Z,1005.17
2019-01-13T10:03:15.372Z,1005.09
2019-01-13T10:05:15.397Z,1004.91
2019-01-13T10:09:15.372Z,1005.08
2019-01-13T10:11:15.363Z,1005.12
2019-01-13T10:15:15.388Z,1005.02
2019-01-13T10:17:15.431Z,1005.11
2019-01-13T10:23:15.413Z,1005.00
2019-01-13T10:25:15.388Z,1004.91
2019-01-13T10:29:15.427Z,1004.78
2019-01-13T10:31:15.380Z,1004.85
2019-01-13T10:35:15.377Z,1004.81
2019-01-13T10:37:15.396Z,1004.79
2019-01-13T10:41:15.549Z,1004.75
2019-01-13T10:43:15.387Z,1004.68
2019-01-13T10:47:15.411Z,1004.53
2019-01-13T10:49:15.416Z,1004.59
2019-01-13T10:53:15.403Z,1004.55
2019-01-13T10:55:15.396Z,1004.56
2019-01-13T10:59:20.481Z,1004.28
2019-01-13T11:01:15.411Z,1004.31
2019-01-13T11:05:15.402Z,1004.21
2019-01-13T11:07:15.602Z,1004.25
2019-01-13T11:11:15.432Z,1004.17
2019-01-13T11:13:15.421Z,1004.20
2019-01-13T11:17:15.420Z,1004.01
2019-01-13T11:19:15.427Z,1004.08
2019-01-13T11:23:15.438Z,1004.01
2019-01-13T11:25:15.458Z,1004.05
2019-01-13T11:29:17.516Z,1004.05
2019-01-13T11:31:15.427Z,1004.00
2019-01-13T11:35:15.398Z,1003.95
2019-01-13T11:37:15.422Z,1003.99
2019-01-13T11:41:15.407Z,1003.76
2019-01-13T11:43:15.446Z,1003.72
2019-01-13T11:47:15.448Z,1003.67
2019-01-13T11:49:16.255Z,1003.76
2019-01-13T11:53:19.887Z,1003.58
2019-01-13T11:55:15.464Z,1003.44
2019-01-13T11:59:15.443Z,1003.19
2019-01-13T12:01:15.452Z,1003.30
2019-01-13T12:05:15.462Z,1003.37
2019-01-13T12:07:15.445Z,1003.31
2019-01-13T12:11:15.439Z,1003.16
2019-01-13T12:13:15.538Z,1003.02
2019-01-13T12:17:15.467Z,1002.82
2019-01-13T12:19:15.468Z,1002.88
2019-01-13T12:23:15.497Z,1002.81
2019-01-13T12:25:15.473Z,1002.86
2019-01-13T12:29:15.485Z,1002.80
2019-01-13T12:31:20.445Z,1002.73
2019-01-13T12:35:15.477Z,1002.62
2019-01-13T12:37:15.504Z,1002.53
2019-01-13T12:41:15.484Z,1002.40
2019-01-13T12:43:15.477Z,1002.49
2019-01-13T12:47:15.494Z,1002.52
2019-01-13T12:49:15.503Z,1002.34
2019-01-13T12:53:15.497Z,1002.41
2019-01-13T12:55:15.676Z,1002.28
2019-01-13T12:59:15.530Z,1002.27
2019-01-13T13:01:19.891Z,1002.36
2019-01-13T13:05:15.511Z,1002.15
2019-01-13T13:07:15.463Z,1002.08
2019-01-13T13:11:15.459Z,1002.13
2019-01-13T13:13:20.664Z,1002.17
2019-01-13T13:17:15.510Z,1002.14
2019-01-13T13:19:15.492Z,1002.09
2019-01-13T13:23:15.498Z,1002.18
2019-01-13T13:25:15.470Z,1002.02
2019-01-13T13:29:15.483Z,1002.05
2019-01-13T13:31:15.485Z,1002.06
2019-01-13T13:35:15.516Z,1001.91
2019-01-13T13:37:15.551Z,1001.71
2019-01-13T13:41:15.531Z,1001.96
2019-01-13T13:43:16.373Z,1001.85
2019-01-13T13:47:15.524Z,1001.79
2019-01-13T13:49:15.518Z,1001.75
2019-01-13T13:53:15.537Z,1001.72
2019-01-13T13:55:15.556Z,1001.76
2019-01-13T13:59:17.855Z,1001.73
2019-01-13T14:01:17.855Z,1001.65
2019-01-13T14:05:15.505Z,1001.64
2019-01-13T14:07:15.513Z,1001.69
2019-01-13T14:11:15.568Z,1001.61
2019-01-13T14:13:15.548Z,1001.53
2019-01-13T14:17:15.529Z,1001.66
2019-01-13T14:19:15.558Z,1001.65
2019-01-13T14:23:15.596Z,1001.62
2019-01-13T14:25:15.498Z,1001.51
2019-01-13T14:29:15.505Z,1001.44
2019-01-13T14:31:15.532Z,1001.38
2019-01-13T14:35:15.553Z,1001.52
2019-01-13T14:37:15.549Z,1001.36
2019-01-13T14:41:15.571Z,1001.41
2019-01-13T14:43:15.515Z,1001.34
2019-01-13T14:47:15.574Z,1001.59
2019-01-13T14:49:15.529Z,1001.33
2019-01-13T14:53:15.578Z,1001.48
2019-01-13T14:55:15.567Z,1001.44
2019-01-13T14:59:15.574Z,1001.31
2019-01-13T15:01:15.526Z,1001.45
2019-01-13T15:05:19.270Z,1001.48
2019-01-13T15:07:15.555Z,1001.36
2019-01-13T15:11:15.576Z,1001.31
2019-01-13T15:13:15.534Z,1001.38
2019-01-13T15:17:15.569Z,1001.18
2019-01-13T15:19:15.538Z,1001.35
2019-01-13T15:23:15.549Z,1001.36
2019-01-13T15:25:15.587Z,1001.41
2019-01-13T15:29:15.569Z,1001.41
2019-01-13T15:31:15.579Z,1001.37
2019-01-13T15:35:15.585Z,1001.26
2019-01-13T15:37:16.323Z,1001.39
2019-01-13T15:41:15.560Z,1001.34
2019-01-13T15:43:15.569Z,1001.42
2019-01-13T15:47:15.581Z,1001.33
2019-01-13T15:49:15.577Z,1001.38
2019-01-13T15:53:15.609Z,1001.33
2019-01-13T15:55:15.617Z,1001.11
2019-01-13T15:59:15.600Z,1001.30
2019-01-13T16:01:15.594Z,1001.15
2019-01-13T16:05:15.607Z,1001.13
2019-01-13T16:07:15.604Z,1000.87
2019-01-13T16:11:16.445Z,1001.03
2019-01-13T16:13:15.616Z,1001.22
2019-01-13T16:17:15.590Z,1001.10
2019-01-13T16:19:15.622Z,1001.10
2019-01-13T16:23:15.609Z,1001.14
2019-01-13T16:25:15.562Z,1001.11
2019-01-13T16:29:15.625Z,1001.12
2019-01-13T16:31:15.593Z,1001.13
2019-01-13T16:35:15.633Z,1001.28
2019-01-13T16:37:15.598Z,1001.18
2019-01-13T16:41:15.639Z,1001.26
2019-01-13T16:43:15.664Z,1001.28
2019-01-13T16:47:15.608Z,1001.39
2019-01-13T16:49:15.618Z,1001.36
2019-01-13T16:53:15.643Z,1001.32
2019-01-13T16:55:15.596Z,1001.39
2019-01-13T16:59:19.929Z,1001.39
2019-01-13T17:01:15.642Z,1001.33
2019-01-13T17:05:15.580Z,1001.45
2019-01-13T17:07:15.646Z,1001.42
2019-01-13T17:11:15.657Z,1001.47
2019-01-13T17:13:15.655Z,1001.53
2019-01-13T17:17:15.661Z,1001.50
2019-01-13T17:19:15.651Z,1001.60
2019-01-13T17:23:17.741Z,1001.47
2019-01-13T17:25:15.630Z,1001.58
2019-01-13T17:29:15.715Z,1001.50
2019-01-13T17:31:15.659Z,1001.49
2019-01-13T17:35:15.748Z,1001.51
2019-01-13T17:37:20.063Z,1001.62
2019-01-13T17:41:15.621Z,1001.52
2019-01-13T17:43:15.642Z,1001.48
2019-01-13T17:47:15.664Z,1001.50
2019-01-13T17:49:15.641Z,1001.54
2019-01-13T17:53:15.680Z,1001.54
2019-01-13T17:55:20.998Z,1001.63
2019-01-13T17:59:15.649Z,1001.64
2019-01-13T18:01:15.673Z,1001.67
2019-01-13T18:07:20.046Z,1001.81
2019-01-13T18:09:20.664Z,1001.76
2019-01-13T18:13:21.112Z,1001.84
2019-01-13T18:15:21.061Z,1001.96
2019-01-13T18:19:15.701Z,1001.93
2019-01-13T18:21:15.692Z,1001.93
2019-01-13T18:25:15.664Z,1002.01
2019-01-13T18:27:15.691Z,1001.99
2019-01-13T18:31:15.685Z,1002.03
2019-01-13T18:33:15.664Z,1001.95
2019-01-13T18:39:16.589Z,1001.99
2019-01-13T18:41:20.859Z,1001.98
2019-01-13T18:47:23.414Z,1002.02
2019-01-13T18:49:16.745Z,1002.09
2019-01-13T18:53:15.705Z,1002.06
2019-01-13T18:55:15.677Z,1002.05
2019-01-13T19:01:15.691Z,1002.24
2019-01-13T19:03:15.674Z,1002.21
2019-01-13T19:07:16.735Z,1002.39
2019-01-13T19:09:15.690Z,1002.30
2019-01-13T19:13:23.683Z,1002.42
2019-01-13T19:15:15.743Z,1002.39
2019-01-13T19:19:15.731Z,1002.48
2019-01-13T19:21:15.714Z,1002.40
2019-01-13T19:25:16.091Z,1002.42
2019-01-13T19:27:17.174Z,1002.44
2019-01-13T19:33:15.836Z,1002.55
2019-01-13T19:35:15.829Z,1002.54
2019-01-13T19:39:17.137Z,1002.55
2019-01-13T19:41:24.809Z,1002.61
2019-01-13T19:45:15.867Z,1002.67
2019-01-13T19:47:15.861Z,1002.55
2019-01-13T19:51:15.833Z,1002.61
2019-01-13T19:53:20.935Z,1002.67
2019-01-13T19:57:20.951Z,1002.72
2019-01-13T19:59:15.754Z,1002.77
2019-01-13T20:03:15.762Z,1002.71
2019-01-13T20:05:22.494Z,1002.59
2019-01-13T20:09:15.998Z,1002.66
2019-01-13T20:11:15.825Z,1002.77
2019-01-13T20:15:15.764Z,1002.73
2019-01-13T20:17:18.469Z,1002.74
2019-01-13T20:21:15.881Z,1002.82
2019-01-13T20:23:20.941Z,1002.84
2019-01-13T20:29:15.835Z,1002.74
2019-01-13T20:31:15.736Z,1002.86
2019-01-13T20:35:19.319Z,1002.95
2019-01-13T20:37:19.830Z,1002.97
2019-01-13T20:41:19.108Z,1003.08
2019-01-13T20:43:15.889Z,1003.09
2019-01-13T20:47:18.752Z,1003.08
2019-01-13T20:49:20.898Z,1003.11
2019-01-13T20:53:15.903Z,1003.12
2019-01-13T20:55:15.770Z,1003.18
2019-01-13T20:59:18.688Z,1003.22
2019-01-13T21:01:15.759Z,1003.20
2019-01-13T21:05:15.854Z,1003.26
2019-01-13T21:07:15.966Z,1003.37
2019-01-13T21:11:18.687Z,1003.32
2019-01-13T21:13:15.982Z,1003.38
2019-01-13T21:17:18.093Z,1003.42
2019-01-13T21:19:17.051Z,1003.48
2019-01-13T21:23:15.846Z,1003.44
2019-01-13T21:25:15.794Z,1003.47
2019-01-13T21:29:15.796Z,1003.44
2019-01-13T21:31:15.758Z,1003.48
2019-01-13T21:35:15.993Z,1003.60
2019-01-13T21:37:15.767Z,1003.58
2019-01-13T21:41:15.760Z,1003.65
2019-01-13T21:43:15.785Z,1003.65
2019-01-13T21:47:15.746Z,1003.77
2019-01-13T21:49:15.738Z,1003.70
2019-01-13T21:53:15.774Z,1003.84
2019-01-13T21:55:15.785Z,1003.80
2019-01-13T21:59:15.854Z,1003.82
2019-01-13T22:01:15.770Z,1003.83
2019-01-13T22:05:15.763Z,1003.85
2019-01-13T22:07:16.870Z,1003.85
2019-01-13T22:11:15.767Z,1003.97
2019-01-13T22:13:15.757Z,1003.86
2019-01-13T22:17:15.790Z,1003.86
2019-01-13T22:19:15.817Z,1003.97
2019-01-13T22:23:17.137Z,1004.04
2019-01-13T22:25:15.782Z,1004.05
2019-01-13T22:29:15.765Z,1004.07
2019-01-13T22:31:22.145Z,1004.14
2019-01-13T22:35:15.780Z,1004.00
2019-01-13T22:37:15.797Z,1004.08
2019-01-13T22:41:15.786Z,1004.18
2019-01-13T22:43:15.785Z,1004.22
2019-01-13T22:47:15.806Z,1004.28
2019-01-13T22:49:15.786Z,1004.39
2019-01-13T22:53:20.972Z,1004.39
2019-01-13T22:55:21.033Z,1004.40
2019-01-13T23:01:15.843Z,1004.45
2019-01-13T23:07:15.792Z,1004.74
2019-01-13T23:09:15.842Z,1004.75
2019-01-13T23:13:15.805Z,1004.78
2019-01-13T23:15:15.811Z,1004.93
2019-01-13T23:19:15.797Z,1004.92
2019-01-13T23:21:15.825Z,1004.95
2019-01-13T23:25:15.778Z,1004.97
2019-01-13T23:27:15.852Z,1004.88
2019-01-13T23:31:15.835Z,1004.98
2019-01-13T23:33:15.805Z,1004.98
2019-01-13T23:37:15.788Z,1005.15
2019-01-13T23:39:15.839Z,1005.17
2019-01-13T23:43:15.813Z,1005.24
2019-01-13T23:45:15.823Z,1005.27
2019-01-13T23:49:15.852Z,1005.31
2019-01-13T23:51:15.822Z,1005.36
2019-01-13T23:55:15.820Z,1005.44
2019-01-13T23:57:15.827Z,1005.37
